Time;durP1;ratioP1;P1;durP2;ratioP2;P2;SDS_P1;SDS_P2;PMS_P1;PMS_P2;Temp;Humidity;BMP_temperature;BMP_pressure;BME280_temperature;BME280_humidity;BME280_pressure;Samples;Min_cycle;Max_cycle;Signal;HPM_P1;HPM_P2
2021/06/18 00:01:28;;;;;;;6.93;3.30;;;18.40;93.10;;;;;;6296006;22;20387;-96
2021/06/18 00:04:19;;;;;;;4.13;3.38;;;18.40;93.10;;;;;;6293034;22;20382;-96
2021/06/18 00:07:13;;;;;;;6.78;3.60;;;18.40;93.40;;;;;;6296428;22;20361;-96
2021/06/18 00:09:50;;;;;;;6.75;3.35;;;18.30;93.30;;;;;;6319757;22;20383;-96
2021/06/18 00:12:26;;;;;;;9.18;3.50;;;18.30;93.50;;;;;;6267434;22;20426;-96
2021/06/18 00:15:15;;;;;;;6.30;3.30;;;18.20;93.90;;;;;;6265556;22;20403;-96
2021/06/18 00:17:51;;;;;;;8.53;3.40;;;18.20;93.50;;;;;;6265547;22;20386;-96
2021/06/18 00:20:33;;;;;;;6.80;3.10;;;18.30;93.40;;;;;;6273833;22;20422;-96
2021/06/18 00:23:06;;;;;;;6.90;3.28;;;18.20;93.50;;;;;;6292796;22;20382;-96
2021/06/18 00:25:34;;;;;;;6.55;3.33;;;18.20;93.60;;;;;;6293493;22;20964;-96
2021/06/18 00:28:17;;;;;;;6.78;3.28;;;18.20;93.60;;;;;;6317499;22;20466;-96
2021/06/18 00:31:09;;;;;;;6.43;3.30;;;18.20;93.70;;;;;;6292413;22;20445;-96
2021/06/18 00:34:32;;;;;;;6.55;3.55;;;18.20;93.90;;;;;;6317032;22;20446;-96
2021/06/18 00:37:34;;;;;;;6.45;3.20;;;18.00;94.20;;;;;;6293285;22;20394;-96
2021/06/18 00:44:30;;;;;;;5.57;3.22;;;18.00;94.20;;;;;;6316728;22;20382;-96
2021/06/18 00:49:55;;;;;;;7.20;3.30;;;17.90;94.50;;;;;;6285347;22;20404;-96
2021/06/18 00:52:50;;;;;;;6.00;3.33;;;17.90;94.60;;;;;;6167392;23;20486;-96
2021/06/18 00:55:19;;;;;;;5.18;3.70;;;17.90;94.50;;;;;;6199025;22;20392;-96
2021/06/18 00:57:56;;;;;;;6.88;3.42;;;17.90;94.50;;;;;;6253631;22;20387;-96
2021/06/18 01:01:17;;;;;;;4.47;3.50;;;17.90;94.60;;;;;;6259183;22;20356;-96
2021/06/18 01:11:45;;;;;;;6.53;3.60;;;17.70;94.80;;;;;;6281096;22;20457;-95
2021/06/18 01:18:06;;;;;;;4.90;3.15;;;17.80;94.80;;;;;;6042986;23;20421;-96
2021/06/18 01:21:19;;;;;;;5.43;3.43;;;17.90;94.70;;;;;;6040522;23;20396;-96
2021/06/18 02:06:33;;;;;;;9.60;3.65;;;17.80;95.10;;;;;;6273686;22;20377;-96
2021/06/18 02:17:23;;;;;;;9.38;3.60;;;17.70;95.10;;;;;;6118555;23;20384;-96
2021/06/18 02:20:20;;;;;;;7.78;3.53;;;17.70;95.20;;;;;;6116515;23;20440;-96
2021/06/18 02:23:20;;;;;;;7.60;3.80;;;17.70;95.20;;;;;;6248683;22;20449;-96
2021/06/18 02:30:22;;;;;;;4.93;3.30;;;17.70;95.50;;;;;;6321866;22;20369;-96
2021/06/18 02:33:13;;;;;;;;;;;;;;;;;;;;;
2021/06/18 02:36:11;;;;;;;5.93;3.72;;;17.70;95.60;;;;;;6258328;22;20873;-96
2021/06/18 02:41:18;;;;;;;7.07;3.55;;;17.60;95.60;;;;;;6320300;22;20386;-96
2021/06/18 02:43:45;;;;;;;5.43;3.65;;;17.60;95.50;;;;;;6291706;22;20390;-96
2021/06/18 02:46:53;;;;;;;5.38;3.60;;;17.60;95.90;;;;;;6291997;22;20393;-96
2021/06/18 02:49:53;;;;;;;5.97;3.75;;;17.60;95.90;;;;;;6295010;22;20385;-96
2021/06/18 02:53:10;;;;;;;9.50;3.80;;;17.60;95.70;;;;;;6289468;22;20451;-96
2021/06/18 02:56:02;;;;;;;6.97;3.50;;;17.60;95.50;;;;;;6242428;22;20701;-96
2021/06/18 02:59:15;;;;;;;7.13;3.50;;;17.60;95.60;;;;;;6318643;22;20382;-96
2021/06/18 03:02:01;;;;;;;6.97;3.80;;;17.60;96.00;;;;;;6300909;22;20363;-96
2021/06/18 03:04:44;;;;;;;5.65;3.10;;;17.60;96.20;;;;;;6292050;22;20374;-96
2021/06/18 03:07:29;;;;;;;19.73;5.05;;;17.50;95.90;;;;;;6294061;22;20772;-96
2021/06/18 03:10:24;;;;;;;15.30;4.07;;;17.50;96.10;;;;;;6293848;22;20567;-96
2021/06/18 03:13:35;;;;;;;7.82;3.60;;;17.30;96.50;;;;;;6290716;22;20382;-96
2021/06/18 03:16:08;;;;;;;14.20;3.72;;;17.40;96.20;;;;;;6290183;22;20785;-96
2021/06/18 03:21:54;;;;;;;17.88;4.22;;;17.50;96.20;;;;;;6321148;22;20369;-96
2021/06/18 03:24:33;;;;;;;9.90;3.38;;;17.60;96.20;;;;;;6296414;22;20381;-96
2021/06/18 03:27:14;;;;;;;7.38;3.60;;;17.60;96.30;;;;;;6317938;22;20409;-96
2021/06/18 03:29:54;;;;;;;6.72;3.83;;;17.50;96.40;;;;;;6295682;22;20444;-96
2021/06/18 03:42:35;;;;;;;7.22;3.70;;;17.60;96.70;;;;;;6259997;22;20388;-96
2021/06/18 03:52:03;;;;;;;7.30;3.63;;;17.70;96.80;;;;;;6192708;23;20389;-96
2021/06/18 03:54:53;;;;;;;6.13;3.60;;;17.50;97.00;;;;;;6169677;23;20449;-96
2021/06/18 04:00:46;;;;;;;6.95;3.63;;;17.60;97.00;;;;;;6180964;23;20468;-96
2021/06/18 04:04:01;;;;;;;8.65;3.85;;;17.60;97.30;;;;;;6177483;23;20385;-96
2021/06/18 04:06:38;;;;;;;6.70;3.70;;;17.60;97.50;;;;;;6173699;23;20393;-96
2021/06/18 04:10:22;;;;;;;6.13;3.67;;;17.70;97.30;;;;;;6193434;23;20421;-96
2021/06/18 04:16:29;;;;;;;6.22;3.80;;;17.70;97.40;;;;;;6291164;22;20876;-96
2021/06/18 04:19:34;;;;;;;5.68;3.30;;;17.70;97.40;;;;;;6260812;22;20864;-96
2021/06/18 04:50:30;;;;;;;7.22;3.70;;;18.10;97.70;;;;;;6295848;22;20525;-95
2021/06/18 04:53:33;;;;;;;6.60;3.33;;;18.20;97.80;;;;;;6300737;22;20366;-95
2021/06/18 04:56:26;;;;;;;6.97;3.50;;;18.30;97.60;;;;;;6301155;22;20873;-94
2021/06/18 04:59:14;;;;;;;6.85;3.50;;;18.30;97.70;;;;;;6238517;23;20432;-96
2021/06/18 05:01:57;;;;;;;6.60;3.50;;;18.40;97.60;;;;;;6253506;23;20382;-95
2021/06/18 05:04:40;;;;;;;8.18;3.75;;;18.50;97.60;;;;;;6227557;23;20386;-96
2021/06/18 05:10:15;;;;;;;9.00;3.70;;;18.60;97.60;;;;;;6244788;23;20389;-96
2021/06/18 05:13:43;;;;;;;6.93;3.60;;;18.70;97.30;;;;;;6233383;23;20412;-96
2021/06/18 05:16:33;;;;;;;5.50;3.53;;;18.80;97.00;;;;;;6250134;22;20856;-95
2021/06/18 05:19:46;;;;;;;7.28;3.40;;;18.90;97.70;;;;;;6292187;22;20439;-96
2021/06/18 05:23:16;;;;;;;9.27;3.85;;;18.90;98.10;;;;;;6228166;23;20348;-96
2021/06/18 05:31:33;;;;;;;6.20;3.53;;;19.10;97.50;;;;;;6309278;22;20455;-96
2021/06/18 05:40:47;;;;;;;11.82;3.90;;;19.30;98.10;;;;;;6285511;22;20408;-96
2021/06/18 05:43:46;;;;;;;40.92;5.93;;;19.40;99.10;;;;;;6266028;22;20444;-96
2021/06/18 05:46:32;;;;;;;29.17;5.13;;;19.50;97.50;;;;;;6296672;22;20509;-94
2021/06/18 05:49:00;;;;;;;8.80;3.65;;;19.50;99.20;;;;;;6286191;22;20379;-95
2021/06/18 05:51:30;;;;;;;6.70;4.05;;;19.50;99.00;;;;;;6317074;22;20409;-96
2021/06/18 05:54:11;;;;;;;7.03;3.97;;;19.70;99.50;;;;;;6312026;22;20885;-94
2021/06/18 05:56:40;;;;;;;8.77;3.70;;;20.10;98.70;;;;;;6291539;22;20413;-95
2021/06/18 05:59:07;;;;;;;9.23;3.70;;;20.40;99.30;;;;;;6312291;22;20379;-95
2021/06/18 06:01:35;;;;;;;6.03;3.65;;;20.90;98.40;;;;;;6310093;22;21186;-95
2021/06/18 06:04:02;;;;;;;10.43;3.53;;;21.40;97.40;;;;;;6288936;22;20383;-94
2021/06/18 06:06:33;;;;;;;6.93;3.70;;;21.80;97.10;;;;;;6291235;22;20398;-95
2021/06/18 06:09:00;;;;;;;9.88;3.80;;;22.30;94.30;;;;;;6287577;22;20859;-95
2021/06/18 06:11:29;;;;;;;18.95;4.55;;;22.60;94.60;;;;;;6286379;22;20406;-95
2021/06/18 06:14:00;;;;;;;8.60;3.47;;;23.10;94.40;;;;;;6288557;22;20445;-95
2021/06/18 06:16:47;;;;;;;5.88;3.25;;;23.40;92.00;;;;;;6286561;22;20482;-95
2021/06/18 06:19:15;;;;;;;7.83;3.57;;;23.60;91.90;;;;;;6280886;22;20387;-96
2021/06/18 06:21:43;;;;;;;9.90;3.40;;;23.90;92.30;;;;;;6288938;22;20417;-94
2021/06/18 06:24:12;;;;;;;7.28;3.30;;;23.90;91.70;;;;;;6288466;22;20386;-95
2021/06/18 06:26:40;;;;;;;5.35;3.38;;;24.30;91.60;;;;;;6292790;22;20398;-96
2021/06/18 06:29:28;;;;;;;5.60;3.53;;;24.50;90.40;;;;;;6291787;22;20389;-96
2021/06/18 06:32:14;;;;;;;8.98;3.50;;;24.70;90.00;;;;;;6275619;22;20402;-95
2021/06/18 06:35:13;;;;;;;7.30;3.20;;;24.90;90.40;;;;;;6222260;23;20395;-96
2021/06/18 06:37:46;;;;;;;6.45;3.40;;;25.10;88.40;;;;;;6216972;23;20388;-95
2021/06/18 06:40:31;;;;;;;7.37;3.37;;;25.10;91.70;;;;;;6216647;23;20380;-96
2021/06/18 06:49:28;;;;;;;16.60;3.78;;;25.30;87.80;;;;;;6300434;22;20403;-96
2021/06/18 06:55:35;;;;;;;7.17;3.67;;;25.10;86.00;;;;;;6315984;22;20390;-95
2021/06/18 06:58:07;;;;;;;7.50;3.53;;;25.40;88.40;;;;;;6281351;22;20874;-95
2021/06/18 07:00:34;;;;;;;7.57;3.63;;;25.50;89.20;;;;;;6281787;22;20383;-95
2021/06/18 07:03:01;;;;;;;5.88;3.58;;;25.60;86.60;;;;;;6282093;22;20382;-93
2021/06/18 07:05:28;;;;;;;4.17;3.27;;;25.40;86.20;;;;;;6281780;22;20389;-94
2021/06/18 07:07:55;;;;;;;6.57;3.50;;;25.40;87.20;;;;;;6282363;22;20398;-94
2021/06/18 07:10:22;;;;;;;9.35;3.70;;;25.20;90.20;;;;;;6282760;22;20877;-94
2021/06/18 07:12:49;;;;;;;18.05;4.30;;;25.40;86.70;;;;;;6282392;22;20386;-94
2021/06/18 07:15:16;;;;;;;16.77;3.80;;;25.60;90.10;;;;;;6281189;22;20389;-94
2021/06/18 07:17:46;;;;;;;6.38;3.70;;;25.50;88.50;;;;;;6282060;22;20562;-94
2021/06/18 07:20:13;;;;;;;6.95;3.35;;;25.70;86.00;;;;;;6281929;22;20383;-95
2021/06/18 07:22:41;;;;;;;7.32;3.67;;;25.70;86.90;;;;;;6281365;22;20390;-95
2021/06/18 07:25:09;;;;;;;8.68;3.80;;;25.80;89.10;;;;;;6281261;22;20387;-94
2021/06/18 07:27:36;;;;;;;6.77;3.97;;;25.50;84.30;;;;;;6281058;22;20399;-94
2021/06/18 07:30:04;;;;;;;6.38;3.38;;;25.50;91.40;;;;;;6284861;22;20410;-95
2021/06/18 07:32:33;;;;;;;6.97;3.50;;;25.80;83.40;;;;;;6281259;22;20392;-96
2021/06/18 07:35:03;;;;;;;9.33;3.60;;;25.80;85.40;;;;;;6282527;22;20444;-94
2021/06/18 07:37:36;;;;;;;9.77;3.90;;;25.70;85.90;;;;;;6283508;22;20412;-96
2021/06/18 07:40:04;;;;;;;10.25;3.88;;;25.80;82.70;;;;;;6282226;22;20383;-94
2021/06/18 07:42:37;;;;;;;7.53;3.60;;;25.90;85.10;;;;;;6284595;22;20388;-96
2021/06/18 07:45:13;;;;;;;8.85;3.65;;;26.00;83.40;;;;;;6312918;22;20855;-96
2021/06/18 07:51:00;;;;;;;;;;;;;;;;;;;;;
2021/06/18 07:53:37;;;;;;;12.98;4.40;;;25.60;84.00;;;;;;6173700;23;20393;-96
2021/06/18 07:56:22;;;;;;;;;;;;;;;;;;;;;
2021/06/18 07:59:20;;;;;;;9.38;3.80;;;25.60;86.50;;;;;;6180048;23;20373;-96
2021/06/18 08:02:15;;;;;;;11.80;4.07;;;25.30;86.60;;;;;;6165958;23;20405;-96
2021/06/18 08:05:09;;;;;;;8.60;3.72;;;25.60;86.50;;;;;;6170500;23;20416;-96
2021/06/18 08:08:05;;;;;;;7.70;3.88;;;25.90;86.20;;;;;;6174263;23;20405;-96
2021/06/18 08:10:50;;;;;;;7.33;4.07;;;26.00;86.40;;;;;;6162724;23;20747;-94
2021/06/18 08:13:17;;;;;;;13.77;4.30;;;26.20;85.40;;;;;;6159344;23;20396;-96
2021/06/18 08:15:44;;;;;;;7.07;3.70;;;26.10;91.10;;;;;;6158999;23;20389;-94
2021/06/18 08:18:11;;;;;;;17.10;3.80;;;26.20;83.60;;;;;;6158802;23;20408;-93
2021/06/18 08:20:38;;;;;;;6.80;3.90;;;26.20;82.40;;;;;;6158772;23;20397;-93
2021/06/18 08:23:05;;;;;;;10.88;4.95;;;26.00;83.10;;;;;;6162796;23;20452;-93
2021/06/18 08:25:33;;;;;;;7.70;4.25;;;25.90;84.10;;;;;;6159826;23;20396;-93
2021/06/18 08:28:00;;;;;;;12.30;4.00;;;25.70;84.90;;;;;;6205986;22;20407;-95
2021/06/18 08:30:27;;;;;;;8.85;4.00;;;25.70;86.30;;;;;;6251046;22;20439;-86
2021/06/18 08:32:54;;;;;;;6.13;3.50;;;25.70;85.40;;;;;;6251691;22;20388;-87
2021/06/18 08:35:23;;;;;;;7.80;4.05;;;25.90;86.00;;;;;;6281434;22;20379;-87
2021/06/18 08:37:50;;;;;;;8.90;3.90;;;25.80;85.30;;;;;;6275133;22;20442;-84
2021/06/18 08:40:17;;;;;;;11.15;4.45;;;25.40;87.00;;;;;;6279579;22;20530;-84
2021/06/18 08:42:47;;;;;;;7.95;4.15;;;25.50;87.00;;;;;;6279862;22;20389;-84
2021/06/18 08:45:13;;;;;;;8.68;3.83;;;25.70;85.60;;;;;;6280221;22;20366;-84
2021/06/18 08:47:41;;;;;;;11.10;4.07;;;26.10;82.80;;;;;;6308059;22;20393;-87
2021/06/18 08:50:08;;;;;;;14.95;4.22;;;26.20;85.00;;;;;;6280159;22;20374;-87
2021/06/18 08:52:41;;;;;;;7.40;3.80;;;26.20;83.40;;;;;;6306725;22;20408;-87
2021/06/18 08:55:26;;;;;;;9.13;3.88;;;26.20;85.50;;;;;;6285822;22;20424;-96
2021/06/18 08:57:55;;;;;;;8.05;3.90;;;26.40;82.90;;;;;;6282293;22;20382;-96
2021/06/18 09:00:24;;;;;;;11.63;4.50;;;26.30;84.70;;;;;;6289010;22;20379;-96
2021/06/18 09:02:52;;;;;;;8.98;4.60;;;26.00;88.40;;;;;;6288578;22;20461;-96
2021/06/18 09:05:21;;;;;;;13.90;4.40;;;26.20;86.30;;;;;;6282548;22;20379;-91
2021/06/18 09:07:52;;;;;;;9.20;4.53;;;26.40;84.30;;;;;;6280196;22;20426;-94
2021/06/18 09:10:39;;;;;;;6.90;4.03;;;26.60;83.90;;;;;;6282828;22;20850;-94
2021/06/18 09:13:20;;;;;;;8.05;4.20;;;26.70;82.60;;;;;;6282487;22;20392;-91
2021/06/18 09:15:50;;;;;;;8.60;4.17;;;26.30;83.30;;;;;;6282223;22;20843;-94
2021/06/18 09:18:36;;;;;;;13.73;4.70;;;26.90;82.00;;;;;;6283498;22;20409;-96
2021/06/18 09:21:21;;;;;;;6.97;4.10;;;27.10;84.90;;;;;;6291451;22;20493;-96
2021/06/18 09:23:56;;;;;;;6.75;4.00;;;27.30;79.70;;;;;;6283036;22;20466;-96
2021/06/18 09:26:37;;;;;;;11.18;4.47;;;27.40;82.20;;;;;;6282845;22;20469;-95
2021/06/18 09:29:10;;;;;;;9.50;4.07;;;27.50;79.90;;;;;;6282814;22;20438;-96
2021/06/18 09:31:46;;;;;;;12.23;4.43;;;27.50;79.50;;;;;;6288097;22;20385;-90
2021/06/18 09:34:28;;;;;;;5.40;3.90;;;27.50;80.10;;;;;;6288985;22;20377;-93
2021/06/18 09:37:39;;;;;;;9.02;4.10;;;27.50;81.30;;;;;;6292686;22;20405;-96
2021/06/18 09:40:19;;;;;;;6.13;4.00;;;27.50;79.90;;;;;;6282093;22;20410;-95
2021/06/18 09:42:54;;;;;;;16.92;4.35;;;27.50;85.30;;;;;;6281896;22;20383;-94
2021/06/18 09:45:31;;;;;;;13.00;4.10;;;27.70;80.40;;;;;;6282715;22;20383;-94
2021/06/18 09:48:16;;;;;;;8.23;3.97;;;27.40;80.10;;;;;;6281800;22;20394;-94
2021/06/18 09:59:21;;;;;;;8.77;3.77;;;27.20;80.00;;;;;;6287145;22;20398;-96
2021/06/18 10:01:55;;;;;;;7.03;3.75;;;27.20;83.30;;;;;;6284255;22;20387;-96
2021/06/18 10:04:24;;;;;;;6.05;3.72;;;27.40;83.50;;;;;;6286977;22;20383;-95
2021/06/18 10:06:51;;;;;;;6.60;3.97;;;27.40;82.10;;;;;;6283680;22;20389;-96
2021/06/18 10:09:19;;;;;;;5.78;3.92;;;27.60;80.90;;;;;;6283929;22;20382;-96
2021/06/18 10:11:46;;;;;;;9.68;4.00;;;27.80;80.10;;;;;;6284150;22;20454;-96
2021/06/18 10:14:14;;;;;;;7.10;4.25;;;27.80;78.80;;;;;;6285983;22;20386;-96
2021/06/18 10:16:43;;;;;;;8.23;3.90;;;27.60;82.40;;;;;;6284853;22;20437;-96
2021/06/18 10:19:10;;;;;;;7.45;3.80;;;27.60;79.60;;;;;;6285490;22;20387;-96
2021/06/18 10:21:50;;;;;;;8.82;3.80;;;27.70;76.40;;;;;;6284833;22;20406;-95
2021/06/18 10:24:22;;;;;;;6.25;3.72;;;27.60;80.00;;;;;;6282210;22;20681;-96
2021/06/18 10:26:52;;;;;;;5.72;3.90;;;27.80;78.60;;;;;;6281620;22;20738;-95
2021/06/18 10:29:36;;;;;;;6.65;4.10;;;27.90;73.60;;;;;;6281739;22;20384;-96
2021/06/18 10:32:29;;;;;;;6.45;4.03;;;27.80;72.60;;;;;;6282079;22;20378;-94
2021/06/18 10:34:57;;;;;;;8.43;3.70;;;27.70;81.80;;;;;;6283384;22;20390;-96
2021/06/18 11:14:10;;;;;;;6.68;2.90;;;28.30;68.80;;;;;;6272126;22;20376;-96
2021/06/18 11:40:27;;;;;;;6.28;3.10;;;29.80;69.60;;;;;;6308267;22;20397;-96
2021/06/18 11:43:53;;;;;;;7.40;3.30;;;29.80;69.00;;;;;;6284092;22;20383;-96
2021/06/18 11:46:29;;;;;;;6.47;3.30;;;29.90;70.50;;;;;;6188949;23;20388;-96
2021/06/18 11:49:17;;;;;;;7.13;3.50;;;29.90;70.30;;;;;;6213832;23;20938;-96
2021/06/18 11:52:07;;;;;;;5.63;3.10;;;29.90;69.00;;;;;;6214663;23;20426;-96
2021/06/18 11:55:02;;;;;;;4.60;3.10;;;30.30;64.80;;;;;;6190480;23;20383;-96
2021/06/18 11:57:47;;;;;;;9.48;3.10;;;30.70;72.80;;;;;;6208801;23;20396;-96
2021/06/18 12:07:45;;;;;;;7.10;3.33;;;31.10;64.00;;;;;;6125858;23;20439;-96
2021/06/18 12:18:37;;;;;;;7.40;3.45;;;32.00;62.50;;;;;;6283065;22;20433;-96
2021/06/18 12:21:17;;;;;;;5.45;2.88;;;32.80;62.20;;;;;;6068373;23;21189;-96
2021/06/18 12:36:10;;;;;;;7.88;2.85;;;33.40;59.50;;;;;;6312588;22;20377;-96
2021/06/18 12:49:42;;;;;;;7.40;2.70;;;33.30;58.90;;;;;;6349525;22;20416;-96
2021/06/18 13:20:39;;;;;;;6.18;2.90;;;34.90;55.00;;;;;;6330945;22;20398;-96
2021/06/18 13:32:52;;;;;;;4.30;2.20;;;33.90;47.80;;;;;;6330888;22;20394;-96
2021/06/18 13:46:47;;;;;;;6.00;2.20;;;34.50;44.00;;;;;;6281925;22;20449;-96
2021/06/18 14:00:41;;;;;;;6.47;2.60;;;35.90;47.40;;;;;;6302747;22;20383;-96
2021/06/18 14:03:17;;;;;;;6.43;2.42;;;36.10;47.90;;;;;;6275132;22;20380;-96
2021/06/18 14:05:55;;;;;;;4.25;2.63;;;35.80;46.40;;;;;;6265639;22;20388;-96
2021/06/18 14:08:36;;;;;;;6.25;2.58;;;35.30;48.50;;;;;;6253665;22;20404;-96
2021/06/18 14:40:26;;;;;;;4.53;2.70;;;35.80;49.00;;;;;;6291313;22;20396;-96
2021/06/18 14:58:08;;;;;;;4.13;2.47;;;36.00;46.10;;;;;;6307403;22;20933;-95
2021/06/18 15:00:36;;;;;;;4.65;2.70;;;36.10;42.80;;;;;;6295534;22;20707;-95
2021/06/18 15:11:48;;;;;;;6.00;2.47;;;36.50;44.40;;;;;;6318469;22;20398;-96
2021/06/18 15:19:58;;;;;;;7.40;2.63;;;35.70;49.50;;;;;;6256739;22;20408;-96
2021/06/18 15:22:27;;;;;;;14.00;3.30;;;35.80;46.00;;;;;;6236201;23;20451;-96
2021/06/18 15:24:57;;;;;;;4.18;2.63;;;35.30;49.10;;;;;;6237456;23;20467;-96
2021/06/18 15:35:58;;;;;;;5.72;2.45;;;34.40;46.20;;;;;;6283939;22;20374;-96
2021/06/18 15:38:42;;;;;;;4.75;2.40;;;34.60;47.40;;;;;;6265361;22;20376;-96
2021/06/18 15:41:16;;;;;;;6.60;2.53;;;34.70;46.00;;;;;;6289393;22;20396;-96
2021/06/18 15:43:59;;;;;;;5.55;2.38;;;35.00;50.00;;;;;;6292480;22;20388;-96
2021/06/18 15:46:40;;;;;;;7.85;2.75;;;35.30;45.90;;;;;;6236962;22;20437;-96
2021/06/18 15:49:13;;;;;;;5.93;2.50;;;35.40;44.70;;;;;;6255339;22;20400;-96
2021/06/18 15:51:41;;;;;;;4.25;2.45;;;35.00;42.90;;;;;;6252577;22;20852;-96
2021/06/18 15:54:09;;;;;;;5.80;2.60;;;34.40;43.00;;;;;;6253760;22;20407;-96
2021/06/18 15:56:36;;;;;;;4.25;2.50;;;33.70;43.20;;;;;;6251052;22;20388;-96
2021/06/18 15:59:03;;;;;;;6.10;2.70;;;33.50;44.10;;;;;;6251774;22;20380;-96
2021/06/18 16:01:31;;;;;;;5.80;2.60;;;33.20;44.60;;;;;;6251451;22;20390;-96
2021/06/18 16:04:02;;;;;;;6.75;2.70;;;33.30;46.90;;;;;;6255124;22;20393;-96
2021/06/18 16:06:29;;;;;;;4.75;2.63;;;33.00;44.20;;;;;;6253937;22;20449;-96
2021/06/18 16:08:57;;;;;;;6.67;2.60;;;32.50;45.40;;;;;;6255757;22;20475;-95
2021/06/18 16:11:25;;;;;;;4.88;2.70;;;33.00;46.30;;;;;;6250939;22;20729;-94
2021/06/18 16:13:53;;;;;;;4.88;2.80;;;33.30;45.40;;;;;;6250132;22;20388;-95
2021/06/18 16:16:20;;;;;;;8.98;2.92;;;33.70;45.00;;;;;;6250344;22;20390;-95
2021/06/18 16:18:48;;;;;;;4.85;2.75;;;33.80;49.00;;;;;;6250013;22;20395;-94
2021/06/18 16:21:17;;;;;;;5.32;2.53;;;34.00;47.20;;;;;;6249964;22;20411;-94
2021/06/18 16:23:45;;;;;;;6.63;2.65;;;34.00;46.90;;;;;;6250283;22;20391;-94
2021/06/18 16:26:12;;;;;;;4.60;2.67;;;33.60;46.40;;;;;;6248183;22;20385;-94
2021/06/18 16:28:39;;;;;;;4.47;2.67;;;33.10;46.60;;;;;;6249248;22;20396;-93
2021/06/18 16:31:07;;;;;;;3.58;2.72;;;32.50;48.00;;;;;;6249747;22;20470;-94
2021/06/18 16:33:34;;;;;;;7.65;2.95;;;32.40;49.10;;;;;;6250408;22;20875;-94
2021/06/18 16:36:01;;;;;;;10.02;3.00;;;32.50;47.00;;;;;;6252072;22;20717;-95
2021/06/18 16:38:29;;;;;;;9.27;2.78;;;32.30;47.60;;;;;;6284155;22;20387;-94
2021/06/18 16:40:57;;;;;;;5.60;2.75;;;32.50;51.80;;;;;;6279291;22;20394;-95
2021/06/18 16:43:24;;;;;;;5.40;2.70;;;33.00;49.00;;;;;;6275432;22;20372;-95
2021/06/18 16:45:51;;;;;;;5.07;2.87;;;33.60;46.10;;;;;;6276244;22;20714;-95
2021/06/18 16:48:19;;;;;;;14.82;3.17;;;33.70;48.50;;;;;;6275081;22;20481;-94
2021/06/18 16:50:46;;;;;;;7.97;3.13;;;33.60;48.70;;;;;;6275015;22;20388;-95
2021/06/18 16:53:14;;;;;;;5.40;2.90;;;33.50;49.00;;;;;;6275479;22;20391;-95
2021/06/18 16:55:42;;;;;;;10.05;2.95;;;33.30;47.20;;;;;;6275121;22;20385;-95
2021/06/18 16:58:09;;;;;;;5.00;2.58;;;33.30;47.20;;;;;;6275046;22;20461;-96
2021/06/18 17:00:36;;;;;;;4.03;2.70;;;33.40;46.10;;;;;;6275601;22;20380;-95
2021/06/18 17:03:03;;;;;;;5.30;2.65;;;33.10;45.40;;;;;;6275550;22;20384;-96
2021/06/18 17:05:31;;;;;;;5.47;2.70;;;32.80;47.70;;;;;;6275068;22;20384;-95
2021/06/18 17:07:58;;;;;;;7.65;2.83;;;32.60;46.90;;;;;;6275647;22;20392;-95
2021/06/18 17:10:36;;;;;;;5.05;2.85;;;32.30;47.80;;;;;;6276036;22;20395;-95
2021/06/18 17:13:31;;;;;;;5.30;3.20;;;32.00;49.00;;;;;;6275318;22;20388;-95
2021/06/18 17:16:01;;;;;;;10.52;3.13;;;31.40;49.50;;;;;;6277594;22;20858;-95
2021/06/18 17:18:31;;;;;;;13.07;3.38;;;31.20;48.50;;;;;;6276042;22;20459;-93
2021/06/18 17:21:01;;;;;;;9.32;2.72;;;31.20;48.60;;;;;;6274940;22;20384;-94
2021/06/18 17:23:29;;;;;;;8.95;3.08;;;31.20;49.00;;;;;;6275133;22;20872;-95
2021/06/18 17:25:56;;;;;;;5.50;2.90;;;31.20;53.10;;;;;;6275094;22;20391;-95
2021/06/18 17:28:23;;;;;;;6.43;2.70;;;31.10;51.60;;;;;;6274936;22;20868;-95
2021/06/18 17:30:57;;;;;;;8.10;3.00;;;30.90;52.80;;;;;;6277185;22;20388;-94
2021/06/18 17:33:26;;;;;;;11.18;2.97;;;30.70;53.70;;;;;;6277610;22;20385;-94
2021/06/18 17:35:56;;;;;;;13.77;3.70;;;30.70;53.80;;;;;;6281064;22;20909;-95
2021/06/18 17:38:25;;;;;;;20.10;4.10;;;30.70;54.10;;;;;;6283034;22;20389;-95
2021/06/18 17:40:52;;;;;;;6.18;3.00;;;30.50;50.80;;;;;;6282719;22;20396;-94
2021/06/18 17:43:20;;;;;;;22.25;3.63;;;30.10;53.40;;;;;;6281582;22;20383;-95
2021/06/18 17:45:47;;;;;;;8.93;3.03;;;30.00;55.00;;;;;;6282804;22;20377;-94
2021/06/18 17:48:14;;;;;;;6.43;3.10;;;29.90;51.30;;;;;;6281934;22;20386;-94
2021/06/18 17:50:41;;;;;;;6.60;3.10;;;29.60;53.20;;;;;;6282087;22;20386;-94
2021/06/18 17:53:08;;;;;;;7.72;3.13;;;29.60;53.70;;;;;;6282184;22;20940;-93
2021/06/18 17:55:36;;;;;;;4.47;3.00;;;29.60;56.00;;;;;;6281938;22;20392;-94
2021/06/18 17:58:03;;;;;;;9.70;3.20;;;29.50;55.70;;;;;;6282057;22;20371;-94
2021/06/18 18:00:30;;;;;;;8.73;3.40;;;29.30;56.50;;;;;;6282319;22;20379;-94
2021/06/18 18:03:06;;;;;;;7.43;3.17;;;29.00;56.30;;;;;;6283291;22;20458;-95
2021/06/18 18:05:34;;;;;;;6.28;3.03;;;28.80;54.30;;;;;;6282250;22;20395;-94
2021/06/18 18:08:02;;;;;;;6.97;3.05;;;28.60;54.40;;;;;;6281481;22;20405;-94
2021/06/18 18:10:30;;;;;;;12.13;3.60;;;28.30;58.90;;;;;;6281721;22;20707;-95
2021/06/18 18:12:58;;;;;;;34.85;5.40;;;28.10;59.30;;;;;;6281682;22;20474;-94
2021/06/18 18:15:26;;;;;;;13.05;3.90;;;27.90;58.90;;;;;;6282148;22;20373;-95
2021/06/18 18:17:53;;;;;;;10.60;3.58;;;27.60;60.10;;;;;;6287148;22;20880;-95
2021/06/18 18:20:20;;;;;;;24.95;4.20;;;27.30;61.40;;;;;;6284978;22;20462;-95
2021/06/18 18:22:48;;;;;;;36.35;5.05;;;27.00;60.20;;;;;;6281725;22;20379;-94
2021/06/18 18:25:15;;;;;;;18.17;3.90;;;26.70;61.50;;;;;;6308571;22;20366;-95
2021/06/18 18:27:43;;;;;;;12.10;3.80;;;26.30;63.50;;;;;;6281501;22;20382;-94
2021/06/18 18:30:11;;;;;;;10.85;3.47;;;26.00;64.60;;;;;;6283043;22;20370;-94
2021/06/18 18:32:39;;;;;;;8.60;3.35;;;25.70;64.80;;;;;;6281605;22;20420;-95
2021/06/18 18:35:07;;;;;;;5.38;3.58;;;25.30;65.80;;;;;;6282804;22;20382;-94
2021/06/18 18:37:35;;;;;;;6.07;3.73;;;25.10;64.50;;;;;;6285968;22;20378;-94
2021/06/18 18:40:03;;;;;;;6.22;3.47;;;24.90;66.30;;;;;;6284974;22;20382;-94
2021/06/18 18:42:31;;;;;;;8.93;4.10;;;24.70;67.40;;;;;;6282479;22;20374;-93
2021/06/18 18:44:58;;;;;;;8.77;3.70;;;24.60;69.80;;;;;;6280805;22;20432;-96
2021/06/18 18:47:25;;;;;;;6.63;3.77;;;24.40;71.40;;;;;;6281711;22;20387;-94
2021/06/18 18:49:52;;;;;;;5.90;4.20;;;24.10;72.70;;;;;;6284911;22;20403;-94
2021/06/18 18:52:20;;;;;;;8.73;3.83;;;23.70;72.80;;;;;;6281944;22;20382;-90
2021/06/18 18:54:50;;;;;;;9.73;4.07;;;23.40;76.20;;;;;;6286811;22;20467;-90
2021/06/18 18:57:18;;;;;;;6.18;3.75;;;23.20;75.40;;;;;;6309001;22;20840;-90
2021/06/18 18:59:45;;;;;;;6.33;3.93;;;22.90;77.90;;;;;;6256268;22;20389;-95
2021/06/18 19:02:12;;;;;;;10.75;4.13;;;22.70;78.90;;;;;;6281737;22;20382;-94
2021/06/18 19:04:39;;;;;;;11.70;4.07;;;22.50;80.60;;;;;;6281148;22;20390;-94
2021/06/18 19:07:07;;;;;;;15.00;4.10;;;22.30;79.80;;;;;;6282053;22;20669;-94
2021/06/18 19:09:35;;;;;;;13.63;4.30;;;22.20;81.10;;;;;;6281299;22;20395;-94
2021/06/18 19:12:03;;;;;;;13.25;4.22;;;22.10;81.30;;;;;;6280925;22;20384;-94
2021/06/18 19:14:32;;;;;;;5.90;3.90;;;22.00;82.20;;;;;;6281486;22;20387;-93
2021/06/18 19:17:00;;;;;;;6.72;4.07;;;21.90;83.30;;;;;;6281912;22;20387;-94
2021/06/18 19:19:28;;;;;;;7.68;4.13;;;21.80;84.00;;;;;;6281663;22;20371;-95
2021/06/18 19:21:55;;;;;;;9.88;4.35;;;21.70;85.70;;;;;;6281138;22;20366;-94
2021/06/18 19:24:22;;;;;;;6.72;4.07;;;21.70;86.60;;;;;;6281554;22;20393;-94
2021/06/18 19:26:50;;;;;;;7.97;4.15;;;21.60;87.40;;;;;;6280579;22;20378;-94
2021/06/18 19:29:17;;;;;;;6.40;4.20;;;21.50;88.70;;;;;;6280982;22;20394;-94
2021/06/18 19:31:45;;;;;;;14.03;4.50;;;21.30;89.00;;;;;;6281366;22;20877;-93
2021/06/18 19:34:14;;;;;;;26.55;4.97;;;21.30;88.90;;;;;;6280947;22;20390;-94
2021/06/18 19:36:42;;;;;;;18.50;4.90;;;21.20;89.20;;;;;;6280952;22;20379;-94
2021/06/18 19:39:16;;;;;;;11.40;4.57;;;21.20;90.50;;;;;;6281061;22;20391;-94
2021/06/18 19:41:44;;;;;;;10.25;4.30;;;21.00;90.30;;;;;;6280878;22;20843;-94
2021/06/18 19:44:11;;;;;;;7.53;4.80;;;21.00;90.30;;;;;;6280826;22;20387;-94
2021/06/18 19:46:38;;;;;;;7.90;4.57;;;21.00;90.40;;;;;;6280843;22;20383;-94
2021/06/18 19:49:06;;;;;;;9.30;4.28;;;21.00;91.00;;;;;;6281050;22;20937;-94
2021/06/18 19:51:33;;;;;;;6.95;4.30;;;21.00;90.70;;;;;;6280875;22;20371;-93
2021/06/18 19:54:01;;;;;;;6.03;4.57;;;21.10;90.70;;;;;;6281284;22;20374;-95
2021/06/18 19:56:28;;;;;;;8.27;4.37;;;21.10;90.70;;;;;;6281188;22;20386;-93
2021/06/18 19:58:55;;;;;;;7.00;4.50;;;21.10;90.70;;;;;;6281071;22;20697;-93
2021/06/18 20:01:23;;;;;;;9.18;4.65;;;21.10;90.90;;;;;;6281476;22;20407;-94
2021/06/18 20:03:51;;;;;;;6.95;4.05;;;21.10;90.80;;;;;;6281100;22;20379;-94
2021/06/18 20:06:19;;;;;;;7.32;4.20;;;21.20;90.90;;;;;;6280887;22;20391;-95
2021/06/18 20:08:47;;;;;;;8.20;4.47;;;21.20;90.90;;;;;;6280535;22;20390;-93